PWSweather.com
Personal Weather Stations
Station Observations
719732
Ponferrada, PonferradaES 24411

PonferradaPonferradaES 24411

Lat: 42.5728, Lon: -6.6425

Elevation: 1676

Station Type: PCE-FWS 20 con garita Ambient Weather SRS100LX

www.meteo.spyfly.es

High Low Average
Temperature 91.4°F33.0°C 61.9°F16.6°C 75.7°F24.3°C
Dew Point 70.2°F21.2°C 61.3°F16.3°C 65.3°F18.5°C
Winds 13.0 mph 20.9 kmh Calm Calm 3.0 mph WSW4.8 kmh WSW
Wind Gusts 18.3 mph29.5 kmh -- 7.0 mph11.3 kmh
Humidity 99% 43% 73%
Pressure 30.12 in1020.0 mb 29.98 in1015.2 mb -
Precipitation 0.00 in0.0 mm - -
Hour Temp Dew Point Humidity Winds Wind Gusts Pressure Precip Precip Rate Daily Precip Total
12:00 AM 71.6°F22.0°C 65.5°F18.6°C 81% 2.2 mph SW3.5 kmh SW 3.8 mph6.1 kmh 30.02 in1016.6 mb 0.00 in0.0 mm 0.00 in0.0 mm 0.00 in0.0 mm
12:05 AM 71.6°F22.0°C 65.5°F18.6°C 81% 2.2 mph WSW3.5 kmh WSW 3.8 mph6.1 kmh 30.03 in1016.9 mb 0.00 in0.0 mm 0.00 in0.0 mm 0.00 in0.0 mm
12:10 AM 71.6°F22.0°C 65.5°F18.6°C 81% 3.8 mph SW6.1 kmh SW 5.4 mph8.7 kmh 30.03 in1016.9 mb 0.00 in0.0 mm 0.00 in0.0 mm 0.00 in0.0 mm
12:15 AM 71.6°F22.0°C 65.5°F18.6°C 81% 1.6 mph WSW2.6 kmh WSW 5.4 mph8.7 kmh 30.02 in1016.6 mb 0.00 in0.0 mm 0.00 in0.0 mm 0.00 in0.0 mm
12:20 AM 71.4°F21.9°C 65.7°F18.7°C 82% 2.2 mph WSW3.5 kmh WSW 5.4 mph8.7 kmh 30.03 in1016.9 mb 0.00 in0.0 mm 0.00 in0.0 mm 0.00 in0.0 mm
12:25 AM 71.2°F21.8°C 65.5°F18.6°C 82% 0.7 mph SW1.1 kmh SW 3.8 mph6.1 kmh 30.03 in1016.9 mb 0.00 in0.0 mm 0.00 in0.0 mm 0.00 in0.0 mm
12:30 AM 71.1°F21.7°C 65.3°F18.5°C 82% 1.6 mph SW2.6 kmh SW 3.1 mph5.0 kmh 30.03 in1016.9 mb 0.00 in0.0 mm 0.00 in0.0 mm 0.00 in0.0 mm
12:35 AM 70.9°F21.6°C 65.1°F18.4°C 82% 2.2 mph SW3.5 kmh SW 3.1 mph5.0 kmh 30.02 in1016.6 mb 0.00 in0.0 mm 0.00 in0.0 mm 0.00 in0.0 mm
12:40 AM 70.9°F21.6°C 65.1°F18.4°C 82% 1.6 mph SW2.6 kmh SW 3.8 mph6.1 kmh 30.03 in1016.9 mb 0.00 in0.0 mm 0.00 in0.0 mm 0.00 in0.0 mm
12:45 AM 70.9°F21.6°C 65.1°F18.4°C 82% 0.7 mph SW1.1 kmh SW 3.8 mph6.1 kmh 30.03 in1016.9 mb 0.00 in0.0 mm 0.00 in0.0 mm 0.00 in0.0 mm
12:50 AM 70.9°F21.6°C 65.1°F18.4°C 82% 1.6 mph SW2.6 kmh SW 3.8 mph6.1 kmh 30.03 in1016.9 mb 0.00 in0.0 mm 0.00 in0.0 mm 0.00 in0.0 mm
12:55 AM 70.9°F21.6°C 65.1°F18.4°C 82% 1.6 mph SW2.6 kmh SW 3.8 mph6.1 kmh 30.03 in1016.9 mb 0.00 in0.0 mm 0.00 in0.0 mm 0.00 in0.0 mm
01:00 AM 70.5°F21.4°C 64.8°F18.2°C 82% 1.6 mph SW2.6 kmh SW 3.8 mph6.1 kmh 30.03 in1016.9 mb 0.00 in0.0 mm 0.00 in0.0 mm 0.00 in0.0 mm
01:05 AM 70.5°F21.4°C 64.8°F18.2°C 82% 0.7 mph SW1.1 kmh SW 3.1 mph5.0 kmh 30.03 in1016.9 mb 0.00 in0.0 mm 0.00 in0.0 mm 0.00 in0.0 mm
01:10 AM 70.5°F21.4°C 64.8°F18.2°C 82% 0.7 mph WSW1.1 kmh WSW 1.6 mph2.6 kmh 30.03 in1016.9 mb 0.00 in0.0 mm 0.00 in0.0 mm 0.00 in0.0 mm
01:15 AM 70.3°F21.3°C 65.0°F18.3°C 83% 0.7 mph SW1.1 kmh SW 3.1 mph5.0 kmh 30.03 in1016.9 mb 0.00 in0.0 mm 0.00 in0.0 mm 0.00 in0.0 mm
01:20 AM 70.2°F21.2°C 64.8°F18.2°C 83% 0.7 mph SSW1.1 kmh SSW 3.1 mph5.0 kmh 30.03 in1016.9 mb 0.00 in0.0 mm 0.00 in0.0 mm 0.00 in0.0 mm
01:25 AM 70.0°F21.1°C 64.6°F18.1°C 83% Calm Calm 3.1 mph5.0 kmh 30.02 in1016.6 mb 0.00 in0.0 mm 0.00 in0.0 mm 0.00 in0.0 mm
01:30 AM 69.6°F20.9°C 64.9°F18.3°C 85% 0.7 mph NE1.1 kmh NE 2.2 mph3.5 kmh 30.03 in1016.9 mb 0.00 in0.0 mm 0.00 in0.0 mm 0.00 in0.0 mm
01:35 AM 69.3°F20.7°C 64.9°F18.3°C 86% 1.6 mph E2.6 kmh E 3.1 mph5.0 kmh 30.03 in1016.9 mb 0.00 in0.0 mm 0.00 in0.0 mm 0.00 in0.0 mm
01:40 AM 69.1°F20.6°C 65.1°F18.4°C 87% 1.6 mph E2.6 kmh E 3.1 mph5.0 kmh 30.02 in1016.6 mb 0.00 in0.0 mm 0.00 in0.0 mm 0.00 in0.0 mm
01:45 AM 68.7°F20.4°C 64.7°F18.2°C 87% 0.7 mph ENE1.1 kmh ENE 2.2 mph3.5 kmh 30.02 in1016.6 mb 0.00 in0.0 mm 0.00 in0.0 mm 0.00 in0.0 mm
01:50 AM 68.5°F20.3°C 64.9°F18.3°C 88% Calm Calm 1.6 mph2.6 kmh 30.02 in1016.6 mb 0.00 in0.0 mm 0.00 in0.0 mm 0.00 in0.0 mm
01:55 AM 68.2°F20.1°C 64.5°F18.1°C 88% 1.6 mph NW2.6 kmh NW 2.2 mph3.5 kmh 30.02 in1016.6 mb 0.00 in0.0 mm 0.00 in0.0 mm 0.00 in0.0 mm
02:00 AM 67.8°F19.9°C 64.8°F18.2°C 90% 1.6 mph NW2.6 kmh NW 2.2 mph3.5 kmh 30.02 in1016.6 mb 0.00 in0.0 mm 0.00 in0.0 mm 0.00 in0.0 mm
02:05 AM 67.5°F19.7°C 64.8°F18.2°C 91% 0.7 mph NW1.1 kmh NW 2.2 mph3.5 kmh 30.02 in1016.6 mb 0.00 in0.0 mm 0.00 in0.0 mm 0.00 in0.0 mm
02:10 AM 67.1°F19.5°C 64.4°F18.0°C 91% 0.7 mph NW1.1 kmh NW 1.6 mph2.6 kmh 30.02 in1016.6 mb 0.00 in0.0 mm 0.00 in0.0 mm 0.00 in0.0 mm
02:15 AM 66.9°F19.4°C 64.5°F18.1°C 92% 1.6 mph W2.6 kmh W 3.1 mph5.0 kmh 30.01 in1016.3 mb 0.00 in0.0 mm 0.00 in0.0 mm 0.00 in0.0 mm
02:20 AM 66.7°F19.3°C 64.7°F18.2°C 93% 0.7 mph W1.1 kmh W 3.8 mph6.1 kmh 30.02 in1016.6 mb 0.00 in0.0 mm 0.00 in0.0 mm 0.00 in0.0 mm
02:25 AM 66.9°F19.4°C 64.9°F18.3°C 93% 2.2 mph WSW3.5 kmh WSW 3.8 mph6.1 kmh 30.02 in1016.6 mb 0.00 in0.0 mm 0.00 in0.0 mm 0.00 in0.0 mm
02:30 AM 67.1°F19.5°C 65.0°F18.3°C 93% 0.7 mph WSW1.1 kmh WSW 3.1 mph5.0 kmh 30.02 in1016.6 mb 0.00 in0.0 mm 0.00 in0.0 mm 0.00 in0.0 mm
02:35 AM 67.3°F19.6°C 65.2°F18.4°C 93% 1.6 mph WSW2.6 kmh WSW 3.1 mph5.0 kmh 30.02 in1016.6 mb 0.00 in0.0 mm 0.00 in0.0 mm 0.00 in0.0 mm
02:40 AM 67.3°F19.6°C 64.9°F18.3°C 92% 0.7 mph WSW1.1 kmh WSW 3.8 mph6.1 kmh 30.02 in1016.6 mb 0.00 in0.0 mm 0.00 in0.0 mm 0.00 in0.0 mm
02:45 AM 67.6°F19.8°C 64.9°F18.3°C 91% 0.7 mph WSW1.1 kmh WSW 3.8 mph6.1 kmh 30.02 in1016.6 mb 0.00 in0.0 mm 0.00 in0.0 mm 0.00 in0.0 mm
02:50 AM 67.3°F19.6°C 64.6°F18.1°C 91% 0.7 mph WNW1.1 kmh WNW 3.8 mph6.1 kmh 30.02 in1016.6 mb 0.00 in0.0 mm 0.00 in0.0 mm 0.00 in0.0 mm
02:55 AM 67.1°F19.5°C 64.4°F18.0°C 91% 1.6 mph NW2.6 kmh NW 3.1 mph5.0 kmh 30.02 in1016.6 mb 0.00 in0.0 mm 0.00 in0.0 mm 0.00 in0.0 mm
03:00 AM 66.9°F19.4°C 64.2°F17.9°C 91% 0.7 mph NW1.1 kmh NW 3.1 mph5.0 kmh 30.02 in1016.6 mb 0.00 in0.0 mm 0.00 in0.0 mm 0.00 in0.0 mm
03:05 AM 66.7°F19.3°C 64.1°F17.8°C 91% 0.7 mph NNW1.1 kmh NNW 2.2 mph3.5 kmh 30.03 in1016.9 mb 0.00 in0.0 mm 0.00 in0.0 mm 0.00 in0.0 mm
03:10 AM 66.4°F19.1°C 64.0°F17.8°C 92% 0.7 mph N1.1 kmh N 1.6 mph2.6 kmh 30.02 in1016.6 mb 0.00 in0.0 mm 0.00 in0.0 mm 0.00 in0.0 mm
03:15 AM 66.2°F19.0°C 64.1°F17.8°C 93% Calm Calm 1.6 mph2.6 kmh 30.02 in1016.6 mb 0.00 in0.0 mm 0.00 in0.0 mm 0.00 in0.0 mm
03:20 AM 65.8°F18.8°C 64.1°F17.8°C 94% Calm Calm 1.6 mph2.6 kmh 30.02 in1016.6 mb 0.00 in0.0 mm 0.00 in0.0 mm 0.00 in0.0 mm
03:25 AM 65.5°F18.6°C 63.7°F17.6°C 94% Calm Calm -- 30.02 in1016.6 mb 0.00 in0.0 mm 0.00 in0.0 mm 0.00 in0.0 mm
03:30 AM 65.3°F18.5°C 63.9°F17.7°C 95% Calm Calm -- 30.02 in1016.6 mb 0.00 in0.0 mm 0.00 in0.0 mm 0.00 in0.0 mm
03:35 AM 65.1°F18.4°C 63.7°F17.6°C 95% Calm Calm 2.2 mph3.5 kmh 30.02 in1016.6 mb 0.00 in0.0 mm 0.00 in0.0 mm 0.00 in0.0 mm
03:40 AM 65.1°F18.4°C 63.7°F17.6°C 95% Calm Calm 2.2 mph3.5 kmh 30.02 in1016.6 mb 0.00 in0.0 mm 0.00 in0.0 mm 0.00 in0.0 mm
03:45 AM 65.1°F18.4°C 64.0°F17.8°C 96% 0.7 mph ENE1.1 kmh ENE 2.2 mph3.5 kmh 30.02 in1016.6 mb 0.00 in0.0 mm 0.00 in0.0 mm 0.00 in0.0 mm
03:50 AM 65.1°F18.4°C 64.0°F17.8°C 96% 1.6 mph NNE2.6 kmh NNE 3.8 mph6.1 kmh 30.02 in1016.6 mb 0.00 in0.0 mm 0.00 in0.0 mm 0.00 in0.0 mm
03:55 AM 65.1°F18.4°C 64.0°F17.8°C 96% 0.7 mph SSW1.1 kmh SSW 3.8 mph6.1 kmh 30.02 in1016.6 mb 0.00 in0.0 mm 0.00 in0.0 mm 0.00 in0.0 mm
04:00 AM 65.3°F18.5°C 64.2°F17.9°C 96% Calm Calm 3.1 mph5.0 kmh 30.02 in1016.6 mb 0.00 in0.0 mm 0.00 in0.0 mm 0.00 in0.0 mm
04:05 AM 65.1°F18.4°C 64.0°F17.8°C 96% 0.7 mph E1.1 kmh E 2.2 mph3.5 kmh 30.02 in1016.6 mb 0.00 in0.0 mm 0.00 in0.0 mm 0.00 in0.0 mm
04:10 AM 64.9°F18.3°C 63.8°F17.7°C 96% 0.7 mph NNW1.1 kmh NNW 2.2 mph3.5 kmh 30.02 in1016.6 mb 0.00 in0.0 mm 0.00 in0.0 mm 0.00 in0.0 mm
04:15 AM 64.6°F18.1°C 63.4°F17.4°C 96% 0.7 mph N1.1 kmh N 2.2 mph3.5 kmh 30.02 in1016.6 mb 0.00 in0.0 mm 0.00 in0.0 mm 0.00 in0.0 mm
04:20 AM 64.4°F18.0°C 63.3°F17.4°C 96% Calm Calm 1.6 mph2.6 kmh 30.02 in1016.6 mb 0.00 in0.0 mm 0.00 in0.0 mm 0.00 in0.0 mm
04:25 AM 64.0°F17.8°C 62.6°F17.0°C 95% 1.6 mph N2.6 kmh N 2.2 mph3.5 kmh 30.02 in1016.6 mb 0.00 in0.0 mm 0.00 in0.0 mm 0.00 in0.0 mm
04:30 AM 63.9°F17.7°C 62.4°F16.9°C 95% 0.7 mph N1.1 kmh N 2.2 mph3.5 kmh 30.02 in1016.6 mb 0.00 in0.0 mm 0.00 in0.0 mm 0.00 in0.0 mm
04:35 AM 63.7°F17.6°C 62.2°F16.8°C 95% 0.7 mph N1.1 kmh N 2.2 mph3.5 kmh 30.03 in1016.9 mb 0.00 in0.0 mm 0.00 in0.0 mm 0.00 in0.0 mm
04:40 AM 63.5°F17.5°C 62.4°F16.9°C 96% Calm Calm 1.6 mph2.6 kmh 30.03 in1016.9 mb 0.00 in0.0 mm 0.00 in0.0 mm 0.00 in0.0 mm
04:45 AM 63.5°F17.5°C 62.4°F16.9°C 96% 0.7 mph NW1.1 kmh NW 1.6 mph2.6 kmh 30.03 in1016.9 mb 0.00 in0.0 mm 0.00 in0.0 mm 0.00 in0.0 mm
04:50 AM 63.3°F17.4°C 62.2°F16.8°C 96% 0.7 mph NNW1.1 kmh NNW 1.6 mph2.6 kmh 30.02 in1016.6 mb 0.00 in0.0 mm 0.00 in0.0 mm 0.00 in0.0 mm
04:55 AM 63.1°F17.3°C 62.0°F16.7°C 96% 0.7 mph N1.1 kmh N 1.6 mph2.6 kmh 30.03 in1016.9 mb 0.00 in0.0 mm 0.00 in0.0 mm 0.00 in0.0 mm
05:00 AM 63.0°F17.2°C 62.1°F16.7°C 97% 0.7 mph NNW1.1 kmh NNW 1.6 mph2.6 kmh 30.02 in1016.6 mb 0.00 in0.0 mm 0.00 in0.0 mm 0.00 in0.0 mm
05:05 AM 63.0°F17.2°C 62.1°F16.7°C 97% 1.6 mph NW2.6 kmh NW 2.2 mph3.5 kmh 30.03 in1016.9 mb 0.00 in0.0 mm 0.00 in0.0 mm 0.00 in0.0 mm
05:10 AM 62.8°F17.1°C 61.9°F16.6°C 97% 0.7 mph WNW1.1 kmh WNW 2.2 mph3.5 kmh 30.03 in1016.9 mb 0.00 in0.0 mm 0.00 in0.0 mm 0.00 in0.0 mm
05:15 AM 62.8°F17.1°C 61.9°F16.6°C 97% Calm Calm 2.2 mph3.5 kmh 30.03 in1016.9 mb 0.00 in0.0 mm 0.00 in0.0 mm 0.00 in0.0 mm
05:20 AM 62.6°F17.0°C 61.8°F16.6°C 97% Calm Calm 1.6 mph2.6 kmh 30.03 in1016.9 mb 0.00 in0.0 mm 0.00 in0.0 mm 0.00 in0.0 mm
05:25 AM 62.8°F17.1°C 61.9°F16.6°C 97% 2.2 mph E3.5 kmh E 4.5 mph7.2 kmh 30.03 in1016.9 mb 0.00 in0.0 mm 0.00 in0.0 mm 0.00 in0.0 mm
05:30 AM 62.8°F17.1°C 61.9°F16.6°C 97% 0.7 mph E1.1 kmh E 4.5 mph7.2 kmh 30.03 in1016.9 mb 0.00 in0.0 mm 0.00 in0.0 mm 0.00 in0.0 mm
05:35 AM 62.8°F17.1°C 61.9°F16.6°C 97% Calm Calm 3.8 mph6.1 kmh 30.03 in1016.9 mb 0.00 in0.0 mm 0.00 in0.0 mm 0.00 in0.0 mm
05:40 AM 62.8°F17.1°C 61.9°F16.6°C 97% Calm Calm 2.2 mph3.5 kmh 30.03 in1016.9 mb 0.00 in0.0 mm 0.00 in0.0 mm 0.00 in0.0 mm
05:45 AM 62.8°F17.1°C 61.9°F16.6°C 97% 0.7 mph NW1.1 kmh NW 1.6 mph2.6 kmh 30.03 in1016.9 mb 0.00 in0.0 mm 0.00 in0.0 mm 0.00 in0.0 mm
05:50 AM 62.6°F17.0°C 61.8°F16.6°C 97% 0.7 mph N1.1 kmh N 1.6 mph2.6 kmh 30.03 in1016.9 mb 0.00 in0.0 mm 0.00 in0.0 mm 0.00 in0.0 mm
05:55 AM 62.6°F17.0°C 61.8°F16.6°C 97% Calm Calm 1.6 mph2.6 kmh 30.03 in1016.9 mb 0.00 in0.0 mm 0.00 in0.0 mm 0.00 in0.0 mm
06:00 AM 62.2°F16.8°C 61.7°F16.5°C 98% Calm Calm 1.6 mph2.6 kmh 30.03 in1016.9 mb 0.00 in0.0 mm 0.00 in0.0 mm 0.00 in0.0 mm
06:05 AM 62.1°F16.7°C 61.5°F16.4°C 98% 0.7 mph N1.1 kmh N 1.6 mph2.6 kmh 30.03 in1016.9 mb 0.00 in0.0 mm 0.00 in0.0 mm 0.00 in0.0 mm
06:10 AM 62.1°F16.7°C 61.5°F16.4°C 98% Calm Calm 1.6 mph2.6 kmh 30.03 in1016.9 mb 0.00 in0.0 mm 0.00 in0.0 mm 0.00 in0.0 mm
06:15 AM 61.9°F16.6°C 61.3°F16.3°C 98% Calm Calm 1.6 mph2.6 kmh 30.03 in1016.9 mb 0.00 in0.0 mm 0.00 in0.0 mm 0.00 in0.0 mm
06:20 AM 61.9°F16.6°C 61.3°F16.3°C 98% Calm Calm -- 30.03 in1016.9 mb 0.00 in0.0 mm 0.00 in0.0 mm 0.00 in0.0 mm
06:25 AM 61.9°F16.6°C 61.3°F16.3°C 98% Calm Calm -- 30.03 in1016.9 mb 0.00 in0.0 mm 0.00 in0.0 mm 0.00 in0.0 mm
06:30 AM 61.9°F16.6°C 61.3°F16.3°C 98% Calm Calm -- 30.03 in1016.9 mb 0.00 in0.0 mm 0.00 in0.0 mm 0.00 in0.0 mm
06:35 AM 61.9°F16.6°C 61.3°F16.3°C 98% Calm Calm 2.2 mph3.5 kmh 30.04 in1017.3 mb 0.00 in0.0 mm 0.00 in0.0 mm 0.00 in0.0 mm
06:40 AM 62.1°F16.7°C 61.5°F16.4°C 98% 0.7 mph N1.1 kmh N 2.2 mph3.5 kmh 30.03 in1016.9 mb 0.00 in0.0 mm 0.00 in0.0 mm 0.00 in0.0 mm
06:45 AM 62.2°F16.8°C 61.7°F16.5°C 98% 0.7 mph E1.1 kmh E 1.6 mph2.6 kmh 30.04 in1017.3 mb 0.00 in0.0 mm 0.00 in0.0 mm 0.00 in0.0 mm
06:50 AM 62.6°F17.0°C 61.8°F16.6°C 97% Calm Calm 1.6 mph2.6 kmh 30.04 in1017.3 mb 0.00 in0.0 mm 0.00 in0.0 mm 0.00 in0.0 mm
06:55 AM 62.8°F17.1°C 61.9°F16.6°C 97% Calm Calm 1.6 mph2.6 kmh 30.04 in1017.3 mb 0.00 in0.0 mm 0.00 in0.0 mm 0.00 in0.0 mm
07:00 AM 63.1°F17.3°C 62.3°F16.8°C 97% Calm Calm -- 30.04 in1017.3 mb 0.00 in0.0 mm 0.00 in0.0 mm 0.00 in0.0 mm
07:05 AM 63.7°F17.6°C 62.8°F17.1°C 97% Calm Calm -- 30.04 in1017.3 mb 0.00 in0.0 mm 0.00 in0.0 mm 0.00 in0.0 mm
07:10 AM 64.0°F17.8°C 63.2°F17.3°C 97% Calm Calm 2.2 mph3.5 kmh 30.03 in1016.9 mb 0.00 in0.0 mm 0.00 in0.0 mm 0.00 in0.0 mm
07:15 AM 64.4°F18.0°C 64.1°F17.8°C 99% Calm Calm 2.2 mph3.5 kmh 30.03 in1016.9 mb 0.00 in0.0 mm 0.00 in0.0 mm 0.00 in0.0 mm
07:20 AM 64.9°F18.3°C 64.7°F18.2°C 99% 2.2 mph W3.5 kmh W 3.1 mph5.0 kmh 30.04 in1017.3 mb 0.00 in0.0 mm 0.00 in0.0 mm 0.00 in0.0 mm
07:25 AM 65.3°F18.5°C 65.0°F18.3°C 99% 0.7 mph W1.1 kmh W 3.8 mph6.1 kmh 30.04 in1017.3 mb 0.00 in0.0 mm 0.00 in0.0 mm 0.00 in0.0 mm
07:30 AM 65.8°F18.8°C 65.3°F18.5°C 98% 0.7 mph WSW1.1 kmh WSW 3.8 mph6.1 kmh 30.04 in1017.3 mb 0.00 in0.0 mm 0.00 in0.0 mm 0.00 in0.0 mm
07:35 AM 66.6°F19.2°C 65.4°F18.6°C 96% 1.6 mph SW2.6 kmh SW 3.8 mph6.1 kmh 30.04 in1017.3 mb 0.00 in0.0 mm 0.00 in0.0 mm 0.00 in0.0 mm
07:40 AM 67.3°F19.6°C 65.8°F18.8°C 95% Calm Calm 3.8 mph6.1 kmh 30.04 in1017.3 mb 0.00 in0.0 mm 0.00 in0.0 mm 0.00 in0.0 mm
07:45 AM 68.0°F20.0°C 65.9°F18.8°C 93% 0.7 mph WNW1.1 kmh WNW 2.2 mph3.5 kmh 30.03 in1016.9 mb 0.00 in0.0 mm 0.00 in0.0 mm 0.00 in0.0 mm
07:50 AM 68.5°F20.3°C 65.8°F18.8°C 91% 2.2 mph W3.5 kmh W 3.1 mph5.0 kmh 30.04 in1017.3 mb 0.00 in0.0 mm 0.00 in0.0 mm 0.00 in0.0 mm
07:55 AM 68.9°F20.5°C 65.6°F18.7°C 89% 3.1 mph W5.0 kmh W 3.8 mph6.1 kmh 30.04 in1017.3 mb 0.00 in0.0 mm 0.00 in0.0 mm 0.00 in0.0 mm
08:00 AM 68.9°F20.5°C 65.2°F18.4°C 88% 1.6 mph W2.6 kmh W 4.5 mph7.2 kmh 30.04 in1017.3 mb 0.00 in0.0 mm 0.00 in0.0 mm 0.00 in0.0 mm
08:05 AM 69.3°F20.7°C 65.3°F18.5°C 87% 1.6 mph WSW2.6 kmh WSW 4.5 mph7.2 kmh 30.04 in1017.3 mb 0.00 in0.0 mm 0.00 in0.0 mm 0.00 in0.0 mm
08:10 AM 69.6°F20.9°C 65.6°F18.7°C 87% 1.6 mph SW2.6 kmh SW 3.1 mph5.0 kmh 30.04 in1017.3 mb 0.00 in0.0 mm 0.00 in0.0 mm 0.00 in0.0 mm
08:15 AM 70.0°F21.1°C 65.0°F18.3°C 84% 2.2 mph WSW3.5 kmh WSW 3.8 mph6.1 kmh 30.04 in1017.3 mb 0.00 in0.0 mm 0.00 in0.0 mm 0.00 in0.0 mm
08:20 AM 70.3°F21.3°C 65.3°F18.5°C 84% 0.7 mph WNW1.1 kmh WNW 3.8 mph6.1 kmh 30.04 in1017.3 mb 0.00 in0.0 mm 0.00 in0.0 mm 0.00 in0.0 mm
08:25 AM 71.2°F21.8°C 65.8°F18.8°C 83% 1.6 mph W2.6 kmh W 3.8 mph6.1 kmh 30.04 in1017.3 mb 0.00 in0.0 mm 0.00 in0.0 mm 0.00 in0.0 mm
08:30 AM 71.8°F22.1°C 66.0°F18.9°C 82% 1.6 mph SW2.6 kmh SW 3.1 mph5.0 kmh 30.04 in1017.3 mb 0.00 in0.0 mm 0.00 in0.0 mm 0.00 in0.0 mm
08:35 AM 72.0°F22.2°C 65.8°F18.8°C 81% Calm Calm 3.8 mph6.1 kmh 30.04 in1017.3 mb 0.00 in0.0 mm 0.00 in0.0 mm 0.00 in0.0 mm
08:40 AM 72.1°F22.3°C 66.0°F18.9°C 81% 1.6 mph W2.6 kmh W 3.8 mph6.1 kmh 30.04 in1017.3 mb 0.00 in0.0 mm 0.00 in0.0 mm 0.00 in0.0 mm
08:45 AM 72.7°F22.6°C 66.5°F19.2°C 81% 1.6 mph NW2.6 kmh NW 3.8 mph6.1 kmh 30.04 in1017.3 mb 0.00 in0.0 mm 0.00 in0.0 mm 0.00 in0.0 mm
08:50 AM 72.9°F22.7°C 66.0°F18.9°C 79% 2.2 mph WNW3.5 kmh WNW 3.1 mph5.0 kmh 30.04 in1017.3 mb 0.00 in0.0 mm 0.00 in0.0 mm 0.00 in0.0 mm
08:55 AM 73.2°F22.9°C 66.0°F18.9°C 78% 1.6 mph W2.6 kmh W 3.8 mph6.1 kmh 30.04 in1017.3 mb 0.00 in0.0 mm 0.00 in0.0 mm 0.00 in0.0 mm
09:00 AM 73.6°F23.1°C 66.7°F19.3°C 79% 1.6 mph W2.6 kmh W 4.5 mph7.2 kmh 30.04 in1017.3 mb 0.00 in0.0 mm 0.00 in0.0 mm 0.00 in0.0 mm
09:05 AM 73.6°F23.1°C 66.3°F19.1°C 78% 2.2 mph W3.5 kmh W 4.5 mph7.2 kmh 30.04 in1017.3 mb 0.00 in0.0 mm 0.00 in0.0 mm 0.00 in0.0 mm
09:10 AM 73.6°F23.1°C 66.0°F18.9°C 77% 2.2 mph WSW3.5 kmh WSW 5.4 mph8.7 kmh 30.04 in1017.3 mb 0.00 in0.0 mm 0.00 in0.0 mm 0.00 in0.0 mm
09:15 AM 73.6°F23.1°C 66.3°F19.1°C 78% 1.6 mph W2.6 kmh W 5.4 mph8.7 kmh 30.04 in1017.3 mb 0.00 in0.0 mm 0.00 in0.0 mm 0.00 in0.0 mm
09:20 AM 73.9°F23.3°C 66.3°F19.1°C 77% 3.8 mph SW6.1 kmh SW 5.4 mph8.7 kmh 30.04 in1017.3 mb 0.00 in0.0 mm 0.00 in0.0 mm 0.00 in0.0 mm
09:25 AM 74.1°F23.4°C 66.5°F19.2°C 77% 3.1 mph SW5.0 kmh SW 4.5 mph7.2 kmh 30.04 in1017.3 mb 0.00 in0.0 mm 0.00 in0.0 mm 0.00 in0.0 mm
09:30 AM 74.5°F23.6°C 66.8°F19.3°C 77% 0.7 mph WNW1.1 kmh WNW 5.4 mph8.7 kmh 30.04 in1017.3 mb 0.00 in0.0 mm 0.00 in0.0 mm 0.00 in0.0 mm
09:35 AM 74.8°F23.8°C 67.2°F19.6°C 77% 2.2 mph WNW3.5 kmh WNW 5.4 mph8.7 kmh 30.04 in1017.3 mb 0.00 in0.0 mm 0.00 in0.0 mm 0.00 in0.0 mm
09:40 AM 75.4°F24.1°C 67.3°F19.6°C 76% 3.1 mph W5.0 kmh W 4.5 mph7.2 kmh 30.04 in1017.3 mb 0.00 in0.0 mm 0.00 in0.0 mm 0.00 in0.0 mm
09:45 AM 75.7°F24.3°C 67.3°F19.6°C 75% 0.7 mph W1.1 kmh W 5.4 mph8.7 kmh 30.04 in1017.3 mb 0.00 in0.0 mm 0.00 in0.0 mm 0.00 in0.0 mm
09:50 AM 76.1°F24.5°C 67.6°F19.8°C 75% 1.6 mph WSW2.6 kmh WSW 6.0 mph9.7 kmh 30.03 in1016.9 mb 0.00 in0.0 mm 0.00 in0.0 mm 0.00 in0.0 mm
09:55 AM 76.8°F24.9°C 68.3°F20.2°C 75% 1.6 mph SSW2.6 kmh SSW 6.0 mph9.7 kmh 30.03 in1016.9 mb 0.00 in0.0 mm 0.00 in0.0 mm 0.00 in0.0 mm
10:00 AM 76.5°F24.7°C 67.6°F19.8°C 74% 3.1 mph WSW5.0 kmh WSW 4.5 mph7.2 kmh 30.03 in1016.9 mb 0.00 in0.0 mm 0.00 in0.0 mm 0.00 in0.0 mm
10:05 AM 75.6°F24.2°C 66.7°F19.3°C 74% 1.6 mph W2.6 kmh W 4.5 mph7.2 kmh 30.04 in1017.3 mb 0.00 in0.0 mm 0.00 in0.0 mm 0.00 in0.0 mm
10:10 AM 75.6°F24.2°C 67.5°F19.7°C 76% 1.6 mph W2.6 kmh W 4.5 mph7.2 kmh 30.04 in1017.3 mb 0.00 in0.0 mm 0.00 in0.0 mm 0.00 in0.0 mm
10:15 AM 76.3°F24.6°C 67.8°F19.9°C 75% 3.1 mph WSW5.0 kmh WSW 4.5 mph7.2 kmh 30.03 in1016.9 mb 0.00 in0.0 mm 0.00 in0.0 mm 0.00 in0.0 mm
10:20 AM 76.8°F24.9°C 67.9°F19.9°C 74% 0.7 mph SSW1.1 kmh SSW 4.5 mph7.2 kmh 30.03 in1016.9 mb 0.00 in0.0 mm 0.00 in0.0 mm 0.00 in0.0 mm
10:25 AM 77.5°F25.3°C 68.6°F20.3°C 74% 3.1 mph SSW5.0 kmh SSW 5.4 mph8.7 kmh 30.03 in1016.9 mb 0.00 in0.0 mm 0.00 in0.0 mm 0.00 in0.0 mm
10:30 AM 78.3°F25.7°C 68.9°F20.5°C 73% Calm Calm 5.4 mph8.7 kmh 30.03 in1016.9 mb 0.00 in0.0 mm 0.00 in0.0 mm 0.00 in0.0 mm
10:35 AM 78.8°F26.0°C 67.8°F19.9°C 69% 1.6 mph NW2.6 kmh NW 4.5 mph7.2 kmh 30.04 in1017.3 mb 0.00 in0.0 mm 0.00 in0.0 mm 0.00 in0.0 mm
10:40 AM 79.3°F26.3°C 67.9°F19.9°C 68% 0.7 mph S1.1 kmh S 3.8 mph6.1 kmh 30.03 in1016.9 mb 0.00 in0.0 mm 0.00 in0.0 mm 0.00 in0.0 mm
10:45 AM 79.5°F26.4°C 68.1°F20.1°C 68% 2.2 mph S3.5 kmh S 5.4 mph8.7 kmh 30.04 in1017.3 mb 0.00 in0.0 mm 0.00 in0.0 mm 0.00 in0.0 mm
10:50 AM 80.1°F26.7°C 68.6°F20.3°C 68% 0.7 mph S1.1 kmh S 5.4 mph8.7 kmh 30.04 in1017.3 mb 0.00 in0.0 mm 0.00 in0.0 mm 0.00 in0.0 mm
10:55 AM 80.6°F27.0°C 68.7°F20.4°C 67% 3.1 mph WNW5.0 kmh WNW 5.4 mph8.7 kmh 30.03 in1016.9 mb 0.00 in0.0 mm 0.00 in0.0 mm 0.00 in0.0 mm
11:00 AM 80.6°F27.0°C 68.2°F20.1°C 66% 2.2 mph NW3.5 kmh NW 6.9 mph11.1 kmh 30.03 in1016.9 mb 0.00 in0.0 mm 0.00 in0.0 mm 0.00 in0.0 mm
11:05 AM 80.4°F26.9°C 68.1°F20.1°C 66% Calm Calm 6.9 mph11.1 kmh 30.03 in1016.9 mb 0.00 in0.0 mm 0.00 in0.0 mm 0.00 in0.0 mm
11:10 AM 80.8°F27.1°C 68.0°F20.0°C 65% 0.7 mph W1.1 kmh W 6.9 mph11.1 kmh 30.03 in1016.9 mb 0.00 in0.0 mm 0.00 in0.0 mm 0.00 in0.0 mm
11:15 AM 81.3°F27.4°C 68.5°F20.3°C 65% 3.1 mph NW5.0 kmh NW 4.5 mph7.2 kmh 30.02 in1016.6 mb 0.00 in0.0 mm 0.00 in0.0 mm 0.00 in0.0 mm
11:20 AM 81.7°F27.6°C 68.4°F20.2°C 64% 3.1 mph NW5.0 kmh NW 6.9 mph11.1 kmh 30.02 in1016.6 mb 0.00 in0.0 mm 0.00 in0.0 mm 0.00 in0.0 mm
11:25 AM 81.7°F27.6°C 69.3°F20.7°C 66% 3.1 mph NW5.0 kmh NW 6.9 mph11.1 kmh 30.03 in1016.9 mb 0.00 in0.0 mm 0.00 in0.0 mm 0.00 in0.0 mm
11:30 AM 82.2°F27.9°C 68.9°F20.5°C 64% 1.6 mph NW2.6 kmh NW 4.5 mph7.2 kmh 30.02 in1016.6 mb 0.00 in0.0 mm 0.00 in0.0 mm 0.00 in0.0 mm
11:35 AM 82.8°F28.2°C 69.4°F20.8°C 64% 1.6 mph W2.6 kmh W 3.8 mph6.1 kmh 30.02 in1016.6 mb 0.00 in0.0 mm 0.00 in0.0 mm 0.00 in0.0 mm
11:40 AM 83.3°F28.5°C 69.0°F20.6°C 62% 2.2 mph SSW3.5 kmh SSW 4.5 mph7.2 kmh 30.02 in1016.6 mb 0.00 in0.0 mm 0.00 in0.0 mm 0.00 in0.0 mm
11:45 AM 83.7°F28.7°C 69.3°F20.7°C 62% 2.2 mph SSW3.5 kmh SSW 6.0 mph9.7 kmh 30.02 in1016.6 mb 0.00 in0.0 mm 0.00 in0.0 mm 0.00 in0.0 mm
11:50 AM 84.0°F28.9°C 69.2°F20.7°C 61% 2.2 mph SW3.5 kmh SW 6.0 mph9.7 kmh 30.02 in1016.6 mb 0.00 in0.0 mm 0.00 in0.0 mm 0.00 in0.0 mm
11:55 AM 84.4°F29.1°C 69.0°F20.6°C 60% 1.6 mph SW2.6 kmh SW 3.8 mph6.1 kmh 30.02 in1016.6 mb 0.00 in0.0 mm 0.00 in0.0 mm 0.00 in0.0 mm
12:00 PM 84.4°F29.1°C 69.0°F20.6°C 60% 4.5 mph WNW7.2 kmh WNW 6.0 mph9.7 kmh 30.02 in1016.6 mb 0.00 in0.0 mm 0.00 in0.0 mm 0.00 in0.0 mm
12:05 PM 84.4°F29.1°C 69.0°F20.6°C 60% 3.8 mph W6.1 kmh W 6.0 mph9.7 kmh 30.02 in1016.6 mb 0.00 in0.0 mm 0.00 in0.0 mm 0.00 in0.0 mm
12:10 PM 84.6°F29.2°C 68.7°F20.4°C 59% 1.6 mph W2.6 kmh W 6.0 mph9.7 kmh 30.01 in1016.3 mb 0.00 in0.0 mm 0.00 in0.0 mm 0.00 in0.0 mm
12:15 PM 85.1°F29.5°C 68.7°F20.4°C 58% Calm Calm 4.5 mph7.2 kmh 30.02 in1016.6 mb 0.00 in0.0 mm 0.00 in0.0 mm 0.00 in0.0 mm
12:20 PM 85.5°F29.7°C 69.1°F20.6°C 58% 3.1 mph WSW5.0 kmh WSW 6.0 mph9.7 kmh 30.01 in1016.3 mb 0.00 in0.0 mm 0.00 in0.0 mm 0.00 in0.0 mm
12:25 PM 85.5°F29.7°C 68.0°F20.0°C 56% 2.2 mph WSW3.5 kmh WSW 6.0 mph9.7 kmh 30.01 in1016.3 mb 0.00 in0.0 mm 0.00 in0.0 mm 0.00 in0.0 mm
12:30 PM 85.8°F29.9°C 69.9°F21.1°C 59% 3.8 mph W6.1 kmh W 6.0 mph9.7 kmh 30.01 in1016.3 mb 0.00 in0.0 mm 0.00 in0.0 mm 0.00 in0.0 mm
12:35 PM 86.0°F30.0°C 69.6°F20.9°C 58% 0.7 mph NW1.1 kmh NW 6.0 mph9.7 kmh 30.00 in1015.9 mb 0.00 in0.0 mm 0.00 in0.0 mm 0.00 in0.0 mm
12:40 PM 86.4°F30.2°C 68.9°F20.5°C 56% 1.6 mph N2.6 kmh N 6.0 mph9.7 kmh 30.00 in1015.9 mb 0.00 in0.0 mm 0.00 in0.0 mm 0.00 in0.0 mm
12:45 PM 86.7°F30.4°C 70.2°F21.2°C 58% 2.2 mph NNE3.5 kmh NNE 4.5 mph7.2 kmh 30.00 in1015.9 mb 0.00 in0.0 mm 0.00 in0.0 mm 0.00 in0.0 mm
12:50 PM 86.7°F30.4°C 69.2°F20.7°C 56% 2.2 mph NW3.5 kmh NW 6.0 mph9.7 kmh 30.00 in1015.9 mb 0.00 in0.0 mm 0.00 in0.0 mm 0.00 in0.0 mm
12:55 PM 86.7°F30.4°C 68.7°F20.4°C 55% 3.8 mph NW6.1 kmh NW 6.9 mph11.1 kmh 29.99 in1015.6 mb 0.00 in0.0 mm 0.00 in0.0 mm 0.00 in0.0 mm
01:00 PM 86.7°F30.4°C 68.1°F20.1°C 54% 0.7 mph N1.1 kmh N 6.9 mph11.1 kmh 29.99 in1015.6 mb 0.00 in0.0 mm 0.00 in0.0 mm 0.00 in0.0 mm
01:05 PM 87.1°F30.6°C 69.0°F20.6°C 55% 1.6 mph N2.6 kmh N 6.0 mph9.7 kmh 29.99 in1015.6 mb 0.00 in0.0 mm 0.00 in0.0 mm 0.00 in0.0 mm
01:10 PM 87.8°F31.0°C 68.6°F20.3°C 53% 1.6 mph WNW2.6 kmh WNW 3.8 mph6.1 kmh 29.99 in1015.6 mb 0.00 in0.0 mm 0.00 in0.0 mm 0.00 in0.0 mm
01:15 PM 88.2°F31.2°C 68.9°F20.5°C 53% 2.2 mph W3.5 kmh W 6.0 mph9.7 kmh 29.99 in1015.6 mb 0.00 in0.0 mm 0.00 in0.0 mm 0.00 in0.0 mm
01:20 PM 88.3°F31.3°C 69.1°F20.6°C 53% 0.7 mph WSW1.1 kmh WSW 6.0 mph9.7 kmh 29.98 in1015.2 mb 0.00 in0.0 mm 0.00 in0.0 mm 0.00 in0.0 mm
01:25 PM 88.7°F31.5°C 70.0°F21.1°C 54% 3.1 mph W5.0 kmh W 6.0 mph9.7 kmh 29.98 in1015.2 mb 0.00 in0.0 mm 0.00 in0.0 mm 0.00 in0.0 mm
01:30 PM 88.7°F31.5°C 68.9°F20.5°C 52% 3.1 mph W5.0 kmh W 6.9 mph11.1 kmh 29.98 in1015.2 mb 0.00 in0.0 mm 0.00 in0.0 mm 0.00 in0.0 mm
01:35 PM 88.7°F31.5°C 68.3°F20.2°C 51% 3.8 mph W6.1 kmh W 7.6 mph12.2 kmh 29.98 in1015.2 mb 0.00 in0.0 mm 0.00 in0.0 mm 0.00 in0.0 mm
01:40 PM 88.9°F31.6°C 69.0°F20.6°C 52% 3.8 mph WNW6.1 kmh WNW 7.6 mph12.2 kmh 29.98 in1015.2 mb 0.00 in0.0 mm 0.00 in0.0 mm 0.00 in0.0 mm
01:45 PM 89.1°F31.7°C 68.6°F20.3°C 51% 5.4 mph NW8.7 kmh NW 9.2 mph14.8 kmh 29.98 in1015.2 mb 0.00 in0.0 mm 0.00 in0.0 mm 0.00 in0.0 mm
01:50 PM 89.4°F31.9°C 69.5°F20.8°C 52% 4.5 mph NW7.2 kmh NW 9.2 mph14.8 kmh 29.98 in1015.2 mb 0.00 in0.0 mm 0.00 in0.0 mm 0.00 in0.0 mm
01:55 PM 89.8°F32.1°C 65.7°F18.7°C 45% 4.5 mph WNW7.2 kmh WNW 9.2 mph14.8 kmh 29.98 in1015.2 mb 0.00 in0.0 mm 0.00 in0.0 mm 0.00 in0.0 mm
02:00 PM 90.0°F32.2°C 65.2°F18.4°C 44% 3.8 mph WNW6.1 kmh WNW 9.2 mph14.8 kmh 29.98 in1015.2 mb 0.00 in0.0 mm 0.00 in0.0 mm 0.00 in0.0 mm
02:05 PM 90.1°F32.3°C 65.3°F18.5°C 44% 3.8 mph W6.1 kmh W 10.7 mph17.2 kmh 29.98 in1015.2 mb 0.00 in0.0 mm 0.00 in0.0 mm 0.00 in0.0 mm
02:10 PM 90.3°F32.4°C 65.5°F18.6°C 44% 6.0 mph WNW9.7 kmh WNW 10.7 mph17.2 kmh 29.98 in1015.2 mb 0.00 in0.0 mm 0.00 in0.0 mm 0.00 in0.0 mm
02:15 PM 90.3°F32.4°C 65.5°F18.6°C 44% 3.8 mph WNW6.1 kmh WNW 10.7 mph17.2 kmh 29.98 in1015.2 mb 0.00 in0.0 mm 0.00 in0.0 mm 0.00 in0.0 mm
02:20 PM 90.7°F32.6°C 66.5°F19.2°C 45% 7.6 mph WSW12.2 kmh WSW 11.4 mph18.3 kmh 29.98 in1015.2 mb 0.00 in0.0 mm 0.00 in0.0 mm 0.00 in0.0 mm
02:25 PM 90.9°F32.7°C 66.6°F19.2°C 45% 7.6 mph W12.2 kmh W 11.4 mph18.3 kmh 29.98 in1015.2 mb 0.00 in0.0 mm 0.00 in0.0 mm 0.00 in0.0 mm
02:30 PM 91.0°F32.8°C 67.5°F19.7°C 46% 6.0 mph NW9.7 kmh NW 11.4 mph18.3 kmh 29.98 in1015.2 mb 0.00 in0.0 mm 0.00 in0.0 mm 0.00 in0.0 mm
02:35 PM 91.4°F33.0°C 68.4°F20.2°C 47% 5.4 mph NW8.7 kmh NW 12.1 mph19.5 kmh 29.98 in1015.2 mb 0.00 in0.0 mm 0.00 in0.0 mm 0.00 in0.0 mm
02:40 PM 91.4°F33.0°C 67.1°F19.5°C 45% 6.0 mph WNW9.7 kmh WNW 12.1 mph19.5 kmh 29.98 in1015.2 mb 0.00 in0.0 mm 0.00 in0.0 mm 0.00 in0.0 mm
02:45 PM 91.2°F32.9°C 66.3°F19.1°C 44% 5.4 mph WSW8.7 kmh WSW 10.7 mph17.2 kmh 29.98 in1015.2 mb 0.00 in0.0 mm 0.00 in0.0 mm 0.00 in0.0 mm
02:50 PM 91.2°F32.9°C 66.3°F19.1°C 44% 6.9 mph W11.1 kmh W 12.1 mph19.5 kmh 29.98 in1015.2 mb 0.00 in0.0 mm 0.00 in0.0 mm 0.00 in0.0 mm
02:55 PM 91.0°F32.8°C 66.8°F19.3°C 45% 6.9 mph NW11.1 kmh NW 12.1 mph19.5 kmh 29.98 in1015.2 mb 0.00 in0.0 mm 0.00 in0.0 mm 0.00 in0.0 mm
03:00 PM 90.9°F32.7°C 67.3°F19.6°C 46% 8.3 mph NW13.4 kmh NW 12.1 mph19.5 kmh 29.98 in1015.2 mb 0.00 in0.0 mm 0.00 in0.0 mm 0.00 in0.0 mm
03:05 PM 90.9°F32.7°C 66.0°F18.9°C 44% 11.4 mph WNW18.3 kmh WNW 13.6 mph21.9 kmh 29.98 in1015.2 mb 0.00 in0.0 mm 0.00 in0.0 mm 0.00 in0.0 mm
03:10 PM 90.5°F32.5°C 66.3°F19.1°C 45% 6.9 mph W11.1 kmh W 13.6 mph21.9 kmh 29.98 in1015.2 mb 0.00 in0.0 mm 0.00 in0.0 mm 0.00 in0.0 mm
03:15 PM 90.9°F32.7°C 67.3°F19.6°C 46% 5.4 mph W8.7 kmh W 13.6 mph21.9 kmh 29.98 in1015.2 mb 0.00 in0.0 mm 0.00 in0.0 mm 0.00 in0.0 mm
03:20 PM 91.0°F32.8°C 66.8°F19.3°C 45% 10.7 mph WNW17.2 kmh WNW 15.2 mph24.5 kmh 29.98 in1015.2 mb 0.00 in0.0 mm 0.00 in0.0 mm 0.00 in0.0 mm
03:25 PM 90.5°F32.5°C 65.0°F18.3°C 43% 7.6 mph NW12.2 kmh NW 17.4 mph28.0 kmh 29.98 in1015.2 mb 0.00 in0.0 mm 0.00 in0.0 mm 0.00 in0.0 mm
03:30 PM 90.3°F32.4°C 66.2°F19.0°C 45% 13.0 mph NW20.9 kmh NW 17.4 mph28.0 kmh 29.98 in1015.2 mb 0.00 in0.0 mm 0.00 in0.0 mm 0.00 in0.0 mm
03:35 PM 90.1°F32.3°C 65.3°F18.5°C 44% 9.2 mph NW14.8 kmh NW 17.4 mph28.0 kmh 29.98 in1015.2 mb 0.00 in0.0 mm 0.00 in0.0 mm 0.00 in0.0 mm
03:40 PM 90.1°F32.3°C 65.3°F18.5°C 44% 7.6 mph WNW12.2 kmh WNW 17.4 mph28.0 kmh 29.98 in1015.2 mb 0.00 in0.0 mm 0.00 in0.0 mm 0.00 in0.0 mm
03:45 PM 90.1°F32.3°C 65.3°F18.5°C 44% 10.7 mph WSW17.2 kmh WSW 16.8 mph27.0 kmh 29.98 in1015.2 mb 0.00 in0.0 mm 0.00 in0.0 mm 0.00 in0.0 mm
03:50 PM 90.3°F32.4°C 65.5°F18.6°C 44% 4.5 mph W7.2 kmh W 14.5 mph23.3 kmh 29.98 in1015.2 mb 0.00 in0.0 mm 0.00 in0.0 mm 0.00 in0.0 mm
03:55 PM 90.3°F32.4°C 66.2°F19.0°C 45% 8.3 mph WNW13.4 kmh WNW 14.5 mph23.3 kmh 29.98 in1015.2 mb 0.00 in0.0 mm 0.00 in0.0 mm 0.00 in0.0 mm
04:00 PM 90.3°F32.4°C 66.2°F19.0°C 45% 7.6 mph WSW12.2 kmh WSW 12.1 mph19.5 kmh 29.98 in1015.2 mb 0.00 in0.0 mm 0.00 in0.0 mm 0.00 in0.0 mm
04:05 PM 90.1°F32.3°C 67.3°F19.6°C 47% 7.6 mph WSW12.2 kmh WSW 13.6 mph21.9 kmh 29.98 in1015.2 mb 0.00 in0.0 mm 0.00 in0.0 mm 0.00 in0.0 mm
04:10 PM 90.3°F32.4°C 65.5°F18.6°C 44% 7.6 mph W12.2 kmh W 13.6 mph21.9 kmh 29.98 in1015.2 mb 0.00 in0.0 mm 0.00 in0.0 mm 0.00 in0.0 mm
04:15 PM 90.1°F32.3°C 66.0°F18.9°C 45% 4.5 mph WSW7.2 kmh WSW 15.9 mph25.6 kmh 29.98 in1015.2 mb 0.00 in0.0 mm 0.00 in0.0 mm 0.00 in0.0 mm
04:20 PM 90.5°F32.5°C 68.8°F20.4°C 49% 3.1 mph W5.0 kmh W 15.9 mph25.6 kmh 29.98 in1015.2 mb 0.00 in0.0 mm 0.00 in0.0 mm 0.00 in0.0 mm
04:25 PM 90.9°F32.7°C 68.5°F20.3°C 48% 9.2 mph NW14.8 kmh NW 12.1 mph19.5 kmh 29.98 in1015.2 mb 0.00 in0.0 mm 0.00 in0.0 mm 0.00 in0.0 mm
04:30 PM 90.5°F32.5°C 67.6°F19.8°C 47% 8.3 mph WNW13.4 kmh WNW 13.0 mph20.9 kmh 29.98 in1015.2 mb 0.00 in0.0 mm 0.00 in0.0 mm 0.00 in0.0 mm
04:35 PM 90.0°F32.2°C 67.7°F19.8°C 48% 10.7 mph WNW17.2 kmh WNW 13.6 mph21.9 kmh 29.98 in1015.2 mb 0.00 in0.0 mm 0.00 in0.0 mm 0.00 in0.0 mm
04:40 PM 89.8°F32.1°C 66.3°F19.1°C 46% 7.6 mph WNW12.2 kmh WNW 13.6 mph21.9 kmh 29.98 in1015.2 mb 0.00 in0.0 mm 0.00 in0.0 mm 0.00 in0.0 mm
04:45 PM 89.6°F32.0°C 66.8°F19.3°C 47% 8.3 mph WNW13.4 kmh WNW 15.9 mph25.6 kmh 29.98 in1015.2 mb 0.00 in0.0 mm 0.00 in0.0 mm 0.00 in0.0 mm
04:50 PM 89.2°F31.8°C 66.4°F19.1°C 47% 9.8 mph WNW15.8 kmh WNW 15.9 mph25.6 kmh 29.98 in1015.2 mb 0.00 in0.0 mm 0.00 in0.0 mm 0.00 in0.0 mm
04:55 PM 89.2°F31.8°C 66.4°F19.1°C 47% 8.3 mph WNW13.4 kmh WNW 15.2 mph24.5 kmh 29.98 in1015.2 mb 0.00 in0.0 mm 0.00 in0.0 mm 0.00 in0.0 mm
05:00 PM 89.1°F31.7°C 66.9°F19.4°C 48% 7.6 mph NW12.2 kmh NW 15.2 mph24.5 kmh 29.98 in1015.2 mb 0.00 in0.0 mm 0.00 in0.0 mm 0.00 in0.0 mm
05:05 PM 89.1°F31.7°C 66.9°F19.4°C 48% 10.7 mph WNW17.2 kmh WNW 14.5 mph23.3 kmh 29.98 in1015.2 mb 0.00 in0.0 mm 0.00 in0.0 mm 0.00 in0.0 mm
05:10 PM 88.9°F31.6°C 66.7°F19.3°C 48% 6.0 mph W9.7 kmh W 14.5 mph23.3 kmh 29.98 in1015.2 mb 0.00 in0.0 mm 0.00 in0.0 mm 0.00 in0.0 mm
05:15 PM 88.5°F31.4°C 65.8°F18.8°C 47% 8.3 mph W13.4 kmh W 15.9 mph25.6 kmh 29.98 in1015.2 mb 0.00 in0.0 mm 0.00 in0.0 mm 0.00 in0.0 mm
05:20 PM 88.2°F31.2°C 66.1°F18.9°C 48% 8.3 mph WNW13.4 kmh WNW 15.9 mph25.6 kmh 29.98 in1015.2 mb 0.00 in0.0 mm 0.00 in0.0 mm 0.00 in0.0 mm
05:25 PM 88.0°F31.1°C 65.9°F18.8°C 48% 7.6 mph NW12.2 kmh NW 18.3 mph29.5 kmh 29.99 in1015.6 mb 0.00 in0.0 mm 0.00 in0.0 mm 0.00 in0.0 mm
05:30 PM 88.2°F31.2°C 66.1°F18.9°C 48% 9.2 mph NW14.8 kmh NW 18.3 mph29.5 kmh 29.98 in1015.2 mb 0.00 in0.0 mm 0.00 in0.0 mm 0.00 in0.0 mm
05:35 PM 88.0°F31.1°C 66.5°F19.2°C 49% 7.6 mph NW12.2 kmh NW 14.5 mph23.3 kmh 29.98 in1015.2 mb 0.00 in0.0 mm 0.00 in0.0 mm 0.00 in0.0 mm
05:40 PM 88.0°F31.1°C 66.5°F19.2°C 49% 7.6 mph NW12.2 kmh NW 14.5 mph23.3 kmh 29.98 in1015.2 mb 0.00 in0.0 mm 0.00 in0.0 mm 0.00 in0.0 mm
05:45 PM 87.6°F30.9°C 66.7°F19.3°C 50% 8.3 mph WNW13.4 kmh WNW 15.2 mph24.5 kmh 29.98 in1015.2 mb 0.00 in0.0 mm 0.00 in0.0 mm 0.00 in0.0 mm
05:50 PM 87.1°F30.6°C 66.2°F19.0°C 50% 13.0 mph W20.9 kmh W 16.8 mph27.0 kmh 29.99 in1015.6 mb 0.00 in0.0 mm 0.00 in0.0 mm 0.00 in0.0 mm
05:55 PM 86.9°F30.5°C 65.5°F18.6°C 49% 6.0 mph WNW9.7 kmh WNW 16.8 mph27.0 kmh 29.99 in1015.6 mb 0.00 in0.0 mm 0.00 in0.0 mm 0.00 in0.0 mm
06:00 PM 86.7°F30.4°C 66.5°F19.2°C 51% 6.9 mph NW11.1 kmh NW 16.8 mph27.0 kmh 29.99 in1015.6 mb 0.00 in0.0 mm 0.00 in0.0 mm 0.00 in0.0 mm
06:05 PM 86.5°F30.3°C 65.7°F18.7°C 50% 6.0 mph NW9.7 kmh NW 15.2 mph24.5 kmh 29.99 in1015.6 mb 0.00 in0.0 mm 0.00 in0.0 mm 0.00 in0.0 mm
06:10 PM 86.2°F30.1°C 65.4°F18.6°C 50% 8.3 mph NW13.4 kmh NW 13.6 mph21.9 kmh 29.99 in1015.6 mb 0.00 in0.0 mm 0.00 in0.0 mm 0.00 in0.0 mm
06:15 PM 85.8°F29.9°C 66.2°F19.0°C 52% 9.8 mph NW15.8 kmh NW 15.2 mph24.5 kmh 30.00 in1015.9 mb 0.00 in0.0 mm 0.00 in0.0 mm 0.00 in0.0 mm
06:20 PM 85.3°F29.6°C 66.3°F19.1°C 53% 8.3 mph NW13.4 kmh NW 15.2 mph24.5 kmh 30.00 in1015.9 mb 0.00 in0.0 mm 0.00 in0.0 mm 0.00 in0.0 mm
06:25 PM 85.1°F29.5°C 66.6°F19.2°C 54% 6.9 mph NW11.1 kmh NW 15.2 mph24.5 kmh 30.00 in1015.9 mb 0.00 in0.0 mm 0.00 in0.0 mm 0.00 in0.0 mm
06:30 PM 84.6°F29.2°C 66.1°F18.9°C 54% 5.4 mph WNW8.7 kmh WNW 15.9 mph25.6 kmh 30.00 in1015.9 mb 0.00 in0.0 mm 0.00 in0.0 mm 0.00 in0.0 mm
06:35 PM 84.4°F29.1°C 66.5°F19.2°C 55% 6.9 mph NW11.1 kmh NW 15.9 mph25.6 kmh 30.01 in1016.3 mb 0.00 in0.0 mm 0.00 in0.0 mm 0.00 in0.0 mm
06:40 PM 84.2°F29.0°C 65.8°F18.8°C 54% 10.7 mph NW17.2 kmh NW 13.6 mph21.9 kmh 30.00 in1015.9 mb 0.00 in0.0 mm 0.00 in0.0 mm 0.00 in0.0 mm
06:45 PM 83.5°F28.6°C 66.2°F19.0°C 56% 7.6 mph NW12.2 kmh NW 14.5 mph23.3 kmh 30.01 in1016.3 mb 0.00 in0.0 mm 0.00 in0.0 mm 0.00 in0.0 mm
06:50 PM 82.8°F28.2°C 66.0°F18.9°C 57% 9.8 mph WNW15.8 kmh WNW 15.2 mph24.5 kmh 30.01 in1016.3 mb 0.00 in0.0 mm 0.00 in0.0 mm 0.00 in0.0 mm
06:55 PM 82.0°F27.8°C 65.9°F18.8°C 58% 9.2 mph NW14.8 kmh NW 15.9 mph25.6 kmh 30.01 in1016.3 mb 0.00 in0.0 mm 0.00 in0.0 mm 0.00 in0.0 mm
07:00 PM 81.5°F27.5°C 65.8°F18.8°C 59% 8.3 mph NW13.4 kmh NW 15.9 mph25.6 kmh 30.01 in1016.3 mb 0.00 in0.0 mm 0.00 in0.0 mm 0.00 in0.0 mm
07:05 PM 81.0°F27.2°C 66.3°F19.1°C 61% 12.1 mph NW19.5 kmh NW 15.9 mph25.6 kmh 30.02 in1016.6 mb 0.00 in0.0 mm 0.00 in0.0 mm 0.00 in0.0 mm
07:10 PM 80.4°F26.9°C 66.3°F19.1°C 62% 8.3 mph WNW13.4 kmh WNW 15.9 mph25.6 kmh 30.02 in1016.6 mb 0.00 in0.0 mm 0.00 in0.0 mm 0.00 in0.0 mm
07:15 PM 80.1°F26.7°C 65.9°F18.8°C 62% 9.8 mph WNW15.8 kmh WNW 15.2 mph24.5 kmh 30.02 in1016.6 mb 0.00 in0.0 mm 0.00 in0.0 mm 0.00 in0.0 mm
07:20 PM 79.7°F26.5°C 65.6°F18.7°C 62% 6.0 mph WNW9.7 kmh WNW 15.2 mph24.5 kmh 30.02 in1016.6 mb 0.00 in0.0 mm 0.00 in0.0 mm 0.00 in0.0 mm
07:25 PM 79.0°F26.1°C 65.4°F18.6°C 63% 4.5 mph WNW7.2 kmh WNW 15.2 mph24.5 kmh 30.02 in1016.6 mb 0.00 in0.0 mm 0.00 in0.0 mm 0.00 in0.0 mm
07:30 PM 78.4°F25.8°C 65.3°F18.5°C 64% 5.4 mph W8.7 kmh W 13.0 mph20.9 kmh 30.03 in1016.9 mb 0.00 in0.0 mm 0.00 in0.0 mm 0.00 in0.0 mm
07:35 PM 78.3°F25.7°C 65.1°F18.4°C 64% 8.3 mph WSW13.4 kmh WSW 12.1 mph19.5 kmh 30.03 in1016.9 mb 0.00 in0.0 mm 0.00 in0.0 mm 0.00 in0.0 mm
07:40 PM 78.1°F25.6°C 65.0°F18.3°C 64% 6.0 mph SW9.7 kmh SW 12.1 mph19.5 kmh 30.03 in1016.9 mb 0.00 in0.0 mm 0.00 in0.0 mm 0.00 in0.0 mm
07:45 PM 77.9°F25.5°C 64.8°F18.2°C 64% 5.4 mph SW8.7 kmh SW 12.1 mph19.5 kmh 30.04 in1017.3 mb 0.00 in0.0 mm 0.00 in0.0 mm 0.00 in0.0 mm
07:50 PM 77.7°F25.4°C 64.6°F18.1°C 64% 9.8 mph WSW15.8 kmh WSW 14.5 mph23.3 kmh 30.03 in1016.9 mb 0.00 in0.0 mm 0.00 in0.0 mm 0.00 in0.0 mm
07:55 PM 77.4°F25.2°C 64.3°F17.9°C 64% 6.0 mph W9.7 kmh W 14.5 mph23.3 kmh 30.04 in1017.3 mb 0.00 in0.0 mm 0.00 in0.0 mm 0.00 in0.0 mm
08:00 PM 77.4°F25.2°C 64.7°F18.2°C 65% 3.8 mph WNW6.1 kmh WNW 14.5 mph23.3 kmh 30.04 in1017.3 mb 0.00 in0.0 mm 0.00 in0.0 mm 0.00 in0.0 mm
08:05 PM 77.2°F25.1°C 64.5°F18.1°C 65% 6.0 mph W9.7 kmh W 9.2 mph14.8 kmh 30.04 in1017.3 mb 0.00 in0.0 mm 0.00 in0.0 mm 0.00 in0.0 mm
08:10 PM 76.8°F24.9°C 65.1°F18.4°C 67% 6.9 mph WNW11.1 kmh WNW 11.4 mph18.3 kmh 30.05 in1017.6 mb 0.00 in0.0 mm 0.00 in0.0 mm 0.00 in0.0 mm
08:15 PM 76.3°F24.6°C 65.0°F18.3°C 68% 3.8 mph NW6.1 kmh NW 12.1 mph19.5 kmh 30.05 in1017.6 mb 0.00 in0.0 mm 0.00 in0.0 mm 0.00 in0.0 mm
08:20 PM 75.7°F24.3°C 64.9°F18.3°C 69% 6.0 mph NW9.7 kmh NW 12.1 mph19.5 kmh 30.05 in1017.6 mb 0.00 in0.0 mm 0.00 in0.0 mm 0.00 in0.0 mm
08:25 PM 75.4°F24.1°C 64.5°F18.1°C 69% 4.5 mph WNW7.2 kmh WNW 13.0 mph20.9 kmh 30.05 in1017.6 mb 0.00 in0.0 mm 0.00 in0.0 mm 0.00 in0.0 mm
08:30 PM 74.7°F23.7°C 64.7°F18.2°C 71% 7.6 mph WNW12.2 kmh WNW 13.0 mph20.9 kmh 30.06 in1017.9 mb 0.00 in0.0 mm 0.00 in0.0 mm 0.00 in0.0 mm
08:35 PM 74.3°F23.5°C 64.3°F17.9°C 71% 8.3 mph WNW13.4 kmh WNW 13.0 mph20.9 kmh 30.05 in1017.6 mb 0.00 in0.0 mm 0.00 in0.0 mm 0.00 in0.0 mm
08:40 PM 73.8°F23.2°C 64.2°F17.9°C 72% 3.1 mph NW5.0 kmh NW 13.0 mph20.9 kmh 30.06 in1017.9 mb 0.00 in0.0 mm 0.00 in0.0 mm 0.00 in0.0 mm
08:45 PM 73.4°F23.0°C 64.3°F17.9°C 73% 4.5 mph NW7.2 kmh NW 12.1 mph19.5 kmh 30.07 in1018.3 mb 0.00 in0.0 mm 0.00 in0.0 mm 0.00 in0.0 mm
08:50 PM 73.0°F22.8°C 63.9°F17.7°C 73% 5.4 mph NW8.7 kmh NW 12.1 mph19.5 kmh 30.07 in1018.3 mb 0.00 in0.0 mm 0.00 in0.0 mm 0.00 in0.0 mm
08:55 PM 72.7°F22.6°C 63.6°F17.6°C 73% 4.5 mph WNW7.2 kmh WNW 12.1 mph19.5 kmh 30.07 in1018.3 mb 0.00 in0.0 mm 0.00 in0.0 mm 0.00 in0.0 mm
09:00 PM 72.3°F22.4°C 63.6°F17.6°C 74% 6.0 mph WNW9.7 kmh WNW 9.8 mph15.8 kmh 30.07 in1018.3 mb 0.00 in0.0 mm 0.00 in0.0 mm 0.00 in0.0 mm
09:05 PM 72.0°F22.2°C 63.6°F17.6°C 75% 4.5 mph NW7.2 kmh NW 9.2 mph14.8 kmh 30.07 in1018.3 mb 0.00 in0.0 mm 0.00 in0.0 mm 0.00 in0.0 mm
09:10 PM 71.6°F22.0°C 63.3°F17.4°C 75% 7.6 mph WNW12.2 kmh WNW 10.7 mph17.2 kmh 30.07 in1018.3 mb 0.00 in0.0 mm 0.00 in0.0 mm 0.00 in0.0 mm
09:15 PM 71.4°F21.9°C 63.5°F17.5°C 76% 3.1 mph W5.0 kmh W 10.7 mph17.2 kmh 30.08 in1018.6 mb 0.00 in0.0 mm 0.00 in0.0 mm 0.00 in0.0 mm
09:20 PM 71.4°F21.9°C 63.5°F17.5°C 76% 3.1 mph W5.0 kmh W 9.8 mph15.8 kmh 30.08 in1018.6 mb 0.00 in0.0 mm 0.00 in0.0 mm 0.00 in0.0 mm
09:25 PM 71.2°F21.8°C 63.7°F17.6°C 77% 3.1 mph W5.0 kmh W 7.6 mph12.2 kmh 30.08 in1018.6 mb 0.00 in0.0 mm 0.00 in0.0 mm 0.00 in0.0 mm
09:30 PM 70.9°F21.6°C 63.3°F17.4°C 77% 3.1 mph W5.0 kmh W 7.6 mph12.2 kmh 30.09 in1019.0 mb 0.00 in0.0 mm 0.00 in0.0 mm 0.00 in0.0 mm
09:35 PM 70.7°F21.5°C 63.2°F17.3°C 77% 3.1 mph W5.0 kmh W 6.0 mph9.7 kmh 30.09 in1019.0 mb 0.00 in0.0 mm 0.00 in0.0 mm 0.00 in0.0 mm
09:40 PM 70.5°F21.4°C 63.4°F17.4°C 78% 4.5 mph WNW7.2 kmh WNW 6.0 mph9.7 kmh 30.09 in1019.0 mb 0.00 in0.0 mm 0.00 in0.0 mm 0.00 in0.0 mm
09:45 PM 70.3°F21.3°C 63.2°F17.3°C 78% 3.1 mph WNW5.0 kmh WNW 6.0 mph9.7 kmh 30.09 in1019.0 mb 0.00 in0.0 mm 0.00 in0.0 mm 0.00 in0.0 mm
09:50 PM 70.0°F21.1°C 62.8°F17.1°C 78% 6.0 mph W9.7 kmh W 7.6 mph12.2 kmh 30.09 in1019.0 mb 0.00 in0.0 mm 0.00 in0.0 mm 0.00 in0.0 mm
09:55 PM 69.8°F21.0°C 63.0°F17.2°C 79% 2.2 mph W3.5 kmh W 7.6 mph12.2 kmh 30.09 in1019.0 mb 0.00 in0.0 mm 0.00 in0.0 mm 0.00 in0.0 mm
10:00 PM 69.8°F21.0°C 63.0°F17.2°C 79% 3.1 mph WSW5.0 kmh WSW 7.6 mph12.2 kmh 30.09 in1019.0 mb 0.00 in0.0 mm 0.00 in0.0 mm 0.00 in0.0 mm
10:05 PM 69.8°F21.0°C 63.0°F17.2°C 79% 1.6 mph WSW2.6 kmh WSW 6.9 mph11.1 kmh 30.09 in1019.0 mb 0.00 in0.0 mm 0.00 in0.0 mm 0.00 in0.0 mm
10:10 PM 69.4°F20.8°C 63.4°F17.4°C 81% 3.1 mph WNW5.0 kmh WNW 4.5 mph7.2 kmh 30.10 in1019.3 mb 0.00 in0.0 mm 0.00 in0.0 mm 0.00 in0.0 mm
10:15 PM 69.4°F20.8°C 63.4°F17.4°C 81% 1.6 mph W2.6 kmh W 5.4 mph8.7 kmh 30.10 in1019.3 mb 0.00 in0.0 mm 0.00 in0.0 mm 0.00 in0.0 mm
10:20 PM 69.3°F20.7°C 63.2°F17.3°C 81% 2.2 mph W3.5 kmh W 5.4 mph8.7 kmh 30.10 in1019.3 mb 0.00 in0.0 mm 0.00 in0.0 mm 0.00 in0.0 mm
10:25 PM 69.3°F20.7°C 63.2°F17.3°C 81% 4.5 mph W7.2 kmh W 6.9 mph11.1 kmh 30.10 in1019.3 mb 0.00 in0.0 mm 0.00 in0.0 mm 0.00 in0.0 mm
10:30 PM 69.3°F20.7°C 63.2°F17.3°C 81% 6.0 mph WSW9.7 kmh WSW 9.2 mph14.8 kmh 30.10 in1019.3 mb 0.00 in0.0 mm 0.00 in0.0 mm 0.00 in0.0 mm
10:35 PM 69.3°F20.7°C 63.2°F17.3°C 81% 6.9 mph SW11.1 kmh SW 9.8 mph15.8 kmh 30.09 in1019.0 mb 0.00 in0.0 mm 0.00 in0.0 mm 0.00 in0.0 mm
10:40 PM 69.3°F20.7°C 63.2°F17.3°C 81% 5.4 mph SW8.7 kmh SW 11.4 mph18.3 kmh 30.10 in1019.3 mb 0.00 in0.0 mm 0.00 in0.0 mm 0.00 in0.0 mm
10:45 PM 69.3°F20.7°C 63.2°F17.3°C 81% 6.0 mph SW9.7 kmh SW 12.1 mph19.5 kmh 30.10 in1019.3 mb 0.00 in0.0 mm 0.00 in0.0 mm 0.00 in0.0 mm
10:50 PM 69.1°F20.6°C 63.0°F17.2°C 81% 3.1 mph WSW5.0 kmh WSW 12.1 mph19.5 kmh 30.11 in1019.6 mb 0.00 in0.0 mm 0.00 in0.0 mm 0.00 in0.0 mm
10:55 PM 68.9°F20.5°C 63.2°F17.3°C 82% 3.8 mph W6.1 kmh W 9.8 mph15.8 kmh 30.10 in1019.3 mb 0.00 in0.0 mm 0.00 in0.0 mm 0.00 in0.0 mm
11:00 PM 68.7°F20.4°C 63.0°F17.2°C 82% 1.6 mph WSW2.6 kmh WSW 9.8 mph15.8 kmh 30.10 in1019.3 mb 0.00 in0.0 mm 0.00 in0.0 mm 0.00 in0.0 mm
11:05 PM 68.7°F20.4°C 63.0°F17.2°C 82% 3.1 mph SW5.0 kmh SW 6.0 mph9.7 kmh 30.11 in1019.6 mb 0.00 in0.0 mm 0.00 in0.0 mm 0.00 in0.0 mm
11:10 PM 68.5°F20.3°C 63.2°F17.3°C 83% 4.5 mph SW7.2 kmh SW 9.2 mph14.8 kmh 30.11 in1019.6 mb 0.00 in0.0 mm 0.00 in0.0 mm 0.00 in0.0 mm
11:15 PM 68.4°F20.2°C 63.0°F17.2°C 83% 5.4 mph WSW8.7 kmh WSW 9.2 mph14.8 kmh 30.11 in1019.6 mb 0.00 in0.0 mm 0.00 in0.0 mm 0.00 in0.0 mm
11:20 PM 68.4°F20.2°C 63.0°F17.2°C 83% 3.1 mph WSW5.0 kmh WSW 9.8 mph15.8 kmh 30.11 in1019.6 mb 0.00 in0.0 mm 0.00 in0.0 mm 0.00 in0.0 mm
11:25 PM 68.4°F20.2°C 63.0°F17.2°C 83% 3.8 mph WSW6.1 kmh WSW 9.8 mph15.8 kmh 30.11 in1019.6 mb 0.00 in0.0 mm 0.00 in0.0 mm 0.00 in0.0 mm
11:30 PM 68.2°F20.1°C 62.8°F17.1°C 83% 3.8 mph WSW6.1 kmh WSW 5.4 mph8.7 kmh 30.11 in1019.6 mb 0.00 in0.0 mm 0.00 in0.0 mm 0.00 in0.0 mm
11:35 PM 68.2°F20.1°C 62.8°F17.1°C 83% 3.1 mph W5.0 kmh W 5.4 mph8.7 kmh 30.12 in1020.0 mb 0.00 in0.0 mm 0.00 in0.0 mm 0.00 in0.0 mm
11:40 PM 68.0°F20.0°C 62.7°F17.1°C 83% 3.1 mph W5.0 kmh W 5.4 mph8.7 kmh 30.11 in1019.6 mb 0.00 in0.0 mm 0.00 in0.0 mm 0.00 in0.0 mm
11:45 PM 67.8°F19.9°C 63.2°F17.3°C 85% 3.1 mph WSW5.0 kmh WSW 6.0 mph9.7 kmh 30.11 in1019.6 mb 0.00 in0.0 mm 0.00 in0.0 mm 0.00 in0.0 mm
11:50 PM 67.6°F19.8°C 63.0°F17.2°C 85% 3.1 mph WSW5.0 kmh WSW 6.9 mph11.1 kmh 30.11 in1019.6 mb 0.00 in0.0 mm 0.00 in0.0 mm 0.00 in0.0 mm
11:55 PM 67.6°F19.8°C 63.0°F17.2°C 85% 3.8 mph W6.1 kmh W 7.6 mph12.2 kmh 30.11 in1019.6 mb 0.00 in0.0 mm 0.00 in0.0 mm 0.00 in0.0 mm